Time;durP1;ratioP1;P1;durP2;ratioP2;P2;SDS_P1;SDS_P2;PMS_P1;PMS_P2;Temp;Humidity;BMP_temperature;BMP_pressure;BME280_temperature;BME280_humidity;BME280_pressure;Samples;Min_cycle;Max_cycle;Signal;HPM_P1;HPM_P2
2023/06/29 08:08:03;;;;;;;6.10;2.30;;;;;;;40.83;44.61;100841.83;90856;1296;58752;-89
2023/06/29 08:11:53;;;;;;;2.30;1.90;;;;;;;41.90;44.36;100840.57;105680;1296;72593;-88
2023/06/29 08:15:39;;;;;;;3.30;2.40;;;;;;;43.14;43.25;100833.98;105732;1296;67674;-89
2023/06/29 08:19:24;;;;;;;4.20;2.50;;;;;;;44.35;42.20;100836.90;105698;1296;71195;-88
2023/06/29 08:22:31;;;;;;;3.10;2.50;;;;;;;45.39;41.30;100837.55;105723;1296;58474;-88
2023/06/29 08:25:39;;;;;;;3.60;3.40;;;;;;;46.17;40.51;100835.56;105606;1295;58161;-89
2023/06/29 08:28:25;;;;;;;3.40;3.20;;;;;;;46.86;39.10;100833.39;105615;1298;63964;-89
2023/06/29 08:31:52;;;;;;;4.60;2.10;;;;;;;46.84;37.97;100830.91;105445;1297;59001;-89
2023/06/29 08:34:59;;;;;;;2.40;2.10;;;;;;;44.74;37.46;100827.34;105692;1296;71207;-88
2023/06/29 08:38:07;;;;;;;3.30;2.30;;;;;;;43.28;36.40;100823.32;105527;1297;58461;-88
2023/06/29 08:41:05;;;;;;;2.70;2.50;;;;;;;44.24;35.58;100823.12;105536;1297;60002;-88
2023/06/29 08:43:53;;;;;;;3.80;2.10;;;;;;;44.84;33.91;100821.22;105513;1296;72583;-88
2023/06/29 08:46:41;;;;;;;2.70;2.50;;;;;;;45.29;33.34;100821.22;105500;1296;67355;-88
2023/06/29 08:49:28;;;;;;;3.30;3.00;;;;;;;46.24;32.82;100824.66;105483;1296;62811;-89
2023/06/29 08:52:19;;;;;;;3.70;3.40;;;;;;;46.90;31.84;100820.45;105435;1296;58572;-89
2023/06/29 08:55:06;;;;;;;2.90;2.50;;;;;;;47.38;30.89;100822.95;105518;1297;57529;-88
2023/06/29 08:58:09;;;;;;;6.00;2.50;;;;;;;46.63;30.00;100819.62;105563;1296;64137;-88
2023/06/29 09:00:56;;;;;;;6.40;3.00;;;;;;;43.74;30.11;100812.55;105672;1296;67268;-88
2023/06/29 09:03:43;;;;;;;2.40;2.20;;;;;;;43.55;29.50;100802.84;105501;1297;71489;-88
2023/06/29 09:06:29;;;;;;;2.20;2.10;;;;;;;41.54;29.09;100799.45;105554;1296;58289;-88
2023/06/29 09:09:15;;;;;;;2.00;1.70;;;;;;;39.43;29.10;100795.96;105469;1297;59049;-88
2023/06/29 09:12:22;;;;;;;3.60;2.00;;;;;;;37.80;29.13;100794.57;105479;1297;73750;-88
2023/06/29 09:15:29;;;;;;;2.60;1.70;;;;;;;36.07;28.80;100791.70;105621;1297;67620;-87
2023/06/29 09:18:23;;;;;;;2.10;1.30;;;;;;;34.51;28.76;100785.99;105670;1296;72278;-87
2023/06/29 09:21:17;;;;;;;2.20;1.00;;;;;;;33.48;28.89;100786.55;105577;1296;58202;-86
2023/06/29 09:24:07;;;;;;;3.00;1.00;;;;;;;32.55;28.88;100786.64;105628;1296;60800;-86
2023/06/29 09:27:49;;;;;;;1.60;1.00;;;;;;;31.58;28.73;100785.02;105572;1296;73933;-87
2023/06/29 09:31:35;;;;;;;3.20;1.20;;;;;;;30.11;28.80;100779.98;105743;1296;68282;-86
2023/06/29 09:34:47;;;;;;;3.00;1.10;;;;;;;29.00;29.51;100782.41;105738;1296;73216;-85
2023/06/29 09:37:35;;;;;;;1.40;1.00;;;;;;;28.56;29.81;100783.39;105526;1296;58334;-85
2023/06/29 09:40:21;;;;;;;2.30;1.30;;;;;;;28.18;29.95;100785.42;105498;1296;59627;-84
2023/06/29 09:43:14;;;;;;;3.60;1.40;;;;;;;27.81;29.97;100776.84;105530;1296;72624;-85
2023/06/29 09:46:07;;;;;;;2.20;1.10;;;;;;;27.39;30.31;100769.23;105570;1296;68680;-84
2023/06/29 09:48:53;;;;;;;1.20;1.10;;;;;;;27.04;30.78;100773.59;105520;1296;72497;-84
2023/06/29 09:51:41;;;;;;;1.20;1.10;;;;;;;26.84;31.22;100769.23;105690;1296;57890;-85
2023/06/29 09:54:36;;;;;;;4.60;1.60;;;;;;;26.68;31.50;100765.70;105627;1296;59776;-85
2023/06/29 09:58:04;;;;;;;2.00;1.40;;;;;;;26.47;31.66;100759.98;105590;1296;74761;-86
2023/06/29 10:01:50;;;;;;;3.20;1.30;;;;;;;26.29;32.11;100764.42;105772;1296;67441;-87
2023/06/29 10:05:37;;;;;;;4.50;1.30;;;;;;;26.06;32.35;100760.45;105721;1297;72420;-87
2023/06/29 10:09:24;;;;;;;2.60;1.20;;;;;;;25.92;32.72;100760.48;105777;1296;57937;-89
2023/06/29 10:13:10;;;;;;;1.60;1.20;;;;;;;25.82;32.76;100763.44;105795;1296;59205;-89
2023/06/29 10:16:57;;;;;;;6.60;1.50;;;;;;;25.70;33.35;100762.70;105768;1296;73615;-90
2023/06/29 10:20:44;;;;;;;1.90;1.20;;;;;;;25.63;33.69;100758.81;105817;1296;68171;-89
2023/06/29 10:24:31;;;;;;;3.60;2.00;;;;;;;25.53;33.73;100751.67;105753;1296;72125;-90
2023/06/29 10:28:18;;;;;;;2.50;1.20;;;;;;;25.38;33.97;100753.73;105262;1304;58604;-89
2023/06/29 10:34:49;;;;;;;2.80;1.30;;;;;;;25.37;34.68;100749.69;105769;1296;72342;-87
2023/06/29 10:38:22;;;;;;;4.00;1.20;;;;;;;25.34;34.83;100748.16;105680;1296;68053;-89
2023/06/29 10:41:30;;;;;;;3.80;1.50;;;;;;;25.38;35.28;100750.53;105710;1296;71439;-86
2023/06/29 10:44:18;;;;;;;2.60;1.60;;;;;;;25.43;35.25;100743.83;105596;1299;57649;-86
2023/06/29 10:47:25;;;;;;;3.90;1.90;;;;;;;25.37;35.56;100747.92;105629;1299;58968;-86
2023/06/29 10:50:12;;;;;;;2.00;1.40;;;;;;;25.39;35.57;100743.41;105498;1298;72550;-86
2023/06/29 10:52:59;;;;;;;2.50;1.60;;;;;;;25.38;35.71;100736.02;105594;1300;67393;-86
2023/06/29 10:55:54;;;;;;;2.40;1.50;;;;;;;25.41;36.08;100740.23;105352;1299;73108;-89
2023/06/29 10:58:40;;;;;;;2.00;1.20;;;;;;;25.36;35.96;100738.15;105471;1298;58571;-86
2023/06/29 11:01:46;;;;;;;1.60;1.40;;;;;;;25.12;36.14;100739.27;105467;1300;60256;-89
2023/06/29 11:04:33;;;;;;;2.00;1.40;;;;;;;25.04;36.48;100739.70;105616;1298;72690;-87
2023/06/29 11:08:00;;;;;;;4.50;1.80;;;;;;;25.01;36.70;100738.11;105446;1298;67444;-87
2023/06/29 11:11:34;;;;;;;4.50;1.40;;;;;;;25.13;36.82;100733.77;105596;1299;71921;-88
2023/06/29 11:14:25;;;;;;;;;;;;;;;25.25;36.91;100735.13;105662;1298;58727;-87
2023/06/29 11:17:54;;;;;;;3.00;1.40;;;;;;;25.22;36.86;100727.91;105519;1298;59944;-88
2023/06/29 11:21:40;;;;;;;4.60;1.30;;;;;;;25.07;37.10;100728.16;105356;1301;72519;-87
2023/06/29 11:25:27;;;;;;;2.40;1.50;;;;;;;24.96;37.33;100727.95;105319;1301;67672;-88
2023/06/29 11:29:13;;;;;;;3.00;1.30;;;;;;;24.92;37.54;100727.90;105359;1301;72433;-88
2023/06/29 11:33:00;;;;;;;2.10;1.50;;;;;;;24.88;37.88;100726.23;105267;1301;58291;-88
2023/06/29 11:36:48;;;;;;;3.90;1.60;;;;;;;24.80;37.93;100722.13;105334;1302;59157;-88
2023/06/29 11:39:35;;;;;;;2.80;1.20;;;;;;;24.77;38.18;100717.17;105360;1303;72387;-88
2023/06/29 11:43:02;;;;;;;1.80;1.70;;;;;;;24.87;38.37;100709.92;105129;1302;68874;-88
2023/06/29 11:46:09;;;;;;;1.50;1.40;;;;;;;25.02;38.38;100700.70;105319;1302;72478;-88
2023/06/29 11:49:35;;;;;;;1.20;1.00;;;;;;;25.21;38.58;100698.77;105375;1301;58546;-88
2023/06/29 11:52:51;;;;;;;4.50;1.30;;;;;;;25.36;38.53;100700.17;105527;1299;58994;-87
2023/06/29 11:56:19;;;;;;;2.30;1.50;;;;;;;25.44;38.60;100703.53;105472;1299;73789;-86
2023/06/29 11:59:29;;;;;;;2.00;1.20;;;;;;;25.49;38.50;100696.22;105558;1299;68536;-87
2023/06/29 12:02:56;;;;;;;1.80;1.20;;;;;;;25.47;38.62;100695.66;105544;1297;72318;-87
2023/06/29 12:06:23;;;;;;;3.10;1.40;;;;;;;25.45;38.73;100692.64;105524;1299;58230;-87
2023/06/29 12:10:09;;;;;;;1.90;1.20;;;;;;;25.45;38.86;100689.31;105557;1300;59082;-87
2023/06/29 12:13:37;;;;;;;1.60;1.20;;;;;;;25.44;38.96;100693.27;105595;1298;74272;-87
2023/06/29 12:17:23;;;;;;;2.30;1.10;;;;;;;25.42;39.08;100696.23;105519;1298;68675;-88
2023/06/29 12:21:10;;;;;;;6.30;1.20;;;;;;;25.51;39.20;100688.84;105592;1298;71412;-87
2023/06/29 12:24:35;;;;;;;1.80;1.20;;;;;;;25.54;39.33;100684.70;105575;1298;58436;-86
2023/06/29 12:28:05;;;;;;;2.40;1.50;;;;;;;25.59;39.46;100677.02;105626;1298;58834;-87
2023/06/29 12:31:53;;;;;;;4.00;1.70;;;;;;;25.66;39.39;100671.91;105536;1299;73696;-87
2023/06/29 12:35:21;;;;;;;1.80;1.30;;;;;;;25.64;39.45;100675.76;105605;1299;68565;-86
2023/06/29 12:38:50;;;;;;;5.40;1.40;;;;;;;25.61;39.52;100672.98;105236;1302;71555;-87
2023/06/29 12:42:17;;;;;;;2.30;1.20;;;;;;;25.70;39.58;100671.44;105320;1302;58385;-88
2023/06/29 12:46:03;;;;;;;3.40;1.30;;;;;;;25.68;39.52;100667.17;105318;1302;58989;-87
2023/06/29 12:49:14;;;;;;;4.40;2.60;;;;;;;25.66;39.61;100669.23;105314;1302;72607;-87
2023/06/29 12:52:41;;;;;;;1.80;1.40;;;;;;;25.64;39.77;100661.70;105245;1303;68068;-87
2023/06/29 12:56:27;;;;;;;7.20;1.60;;;;;;;25.57;39.89;100661.80;105316;1302;72509;-88
2023/06/29 13:00:18;;;;;;;1.50;1.40;;;;;;;25.52;40.00;100664.19;105068;1302;226016;-87
2023/06/29 13:04:04;;;;;;;0.90;0.80;;;;;;;25.49;39.99;100666.38;104760;1308;58857;-87
2023/06/29 13:07:47;;;;;;;4.30;1.40;;;;;;;25.43;40.19;100660.88;104763;1308;72677;-87
2023/06/29 13:11:39;;;;;;;2.20;1.40;;;;;;;25.39;40.28;100661.82;100958;1306;69977;-88
2023/06/29 13:15:14;;;;;;;1.50;1.30;;;;;;;25.36;40.31;100659.09;104913;1309;58699;-87
2023/06/29 13:18:42;;;;;;;2.20;1.10;;;;;;;25.33;40.61;100655.07;104764;1306;59098;-88
2023/06/29 13:22:28;;;;;;;3.30;1.80;;;;;;;25.37;40.70;100651.44;104897;1305;72761;-87
2023/06/29 13:26:14;;;;;;;4.40;1.40;;;;;;;25.49;40.67;100647.13;104894;1305;68697;-88
2023/06/29 13:30:00;;;;;;;4.30;1.50;;;;;;;25.56;40.75;100647.27;104903;1304;72643;-87
2023/06/29 13:33:47;;;;;;;1.70;1.10;;;;;;;25.57;40.65;100643.46;104954;1306;57654;-87
2023/06/29 13:37:33;;;;;;;1.80;1.30;;;;;;;25.55;40.81;100639.25;104926;1305;59172;-87
2023/06/29 13:41:22;;;;;;;2.30;1.40;;;;;;;25.47;40.78;100640.04;105315;1304;72752;-87
2023/06/29 13:45:05;;;;;;;2.90;1.40;;;;;;;25.52;40.98;100639.30;105491;1299;67469;-87
2023/06/29 13:48:12;;;;;;;2.40;1.20;;;;;;;25.61;41.02;100634.52;105219;1308;71449;-87
2023/06/29 13:51:06;;;;;;;4.40;1.30;;;;;;;25.67;41.02;100630.86;105137;1304;58595;-87
2023/06/29 13:54:33;;;;;;;2.10;1.30;;;;;;;25.69;41.16;100630.34;105223;1303;58990;-87
2023/06/29 13:57:43;;;;;;;4.40;1.20;;;;;;;25.72;41.18;100628.55;105247;1307;73000;-87
2023/06/29 14:00:50;;;;;;;2.00;1.40;;;;;;;25.76;41.12;100628.65;105132;1302;68047;-88
2023/06/29 14:04:17;;;;;;;1.20;1.10;;;;;;;25.83;40.95;100625.58;105270;1302;71406;-88
2023/06/29 14:07:23;;;;;;;2.10;1.50;;;;;;;25.84;41.05;100621.77;105269;1306;58514;-87
2023/06/29 14:10:33;;;;;;;5.50;1.40;;;;;;;25.89;41.26;100620.16;105130;1302;58534;-87
2023/06/29 14:13:45;;;;;;;12.20;1.60;;;;;;;25.91;41.26;100619.23;105401;1302;73739;-87
2023/06/29 14:17:12;;;;;;;2.50;1.30;;;;;;;25.83;41.11;100614.27;105477;1299;67481;-87
2023/06/29 14:19:58;;;;;;;2.80;1.60;;;;;;;25.68;41.14;100611.70;105413;1299;71418;-87
2023/06/29 14:22:47;;;;;;;2.60;1.30;;;;;;;25.59;41.26;100606.75;105380;1299;58352;-87
2023/06/29 14:25:35;;;;;;;1.80;1.70;;;;;;;25.54;41.19;100601.86;105384;1298;59959;-87
2023/06/29 14:28:22;;;;;;;7.80;1.50;;;;;;;25.58;41.49;100599.96;105454;1298;73593;-87
2023/06/29 14:31:52;;;;;;;2.60;1.20;;;;;;;25.70;41.51;100598.33;105361;1299;67271;-87
2023/06/29 14:35:08;;;;;;;2.60;1.60;;;;;;;25.78;41.36;100589.77;105411;1299;71296;-87
2023/06/29 14:38:53;;;;;;;3.50;1.40;;;;;;;25.84;41.45;100587.16;105522;1298;59013;-85
2023/06/29 14:42:01;;;;;;;3.20;1.60;;;;;;;25.87;41.41;100585.91;105478;1299;58783;-85
2023/06/29 14:44:52;;;;;;;1.70;1.20;;;;;;;25.79;41.30;100578.94;105461;1299;72832;-85
2023/06/29 14:47:39;;;;;;;2.00;1.30;;;;;;;25.66;41.21;100576.00;105452;1299;68356;-85
2023/06/29 14:50:26;;;;;;;3.60;2.90;;;;;;;25.58;41.30;100573.86;105344;1300;72859;-85
2023/06/29 14:53:16;;;;;;;5.40;1.30;;;;;;;25.52;41.28;100571.70;105375;1298;58593;-85
2023/06/29 14:56:10;;;;;;;2.40;1.50;;;;;;;25.47;41.31;100570.91;105399;1299;59042;-85
2023/06/29 14:59:04;;;;;;;1.60;1.40;;;;;;;25.45;41.35;100570.81;105449;1299;72702;-87
2023/06/29 15:01:51;;;;;;;3.10;1.30;;;;;;;25.45;41.43;100569.78;105383;1299;67411;-87
2023/06/29 15:05:17;;;;;;;5.40;1.60;;;;;;;25.48;41.47;100560.69;105368;1301;71344;-87
2023/06/29 15:08:44;;;;;;;2.20;1.30;;;;;;;25.54;41.40;100559.88;105449;1299;58100;-87
2023/06/29 15:12:11;;;;;;;2.10;1.10;;;;;;;25.60;41.37;100555.16;105476;1299;60341;-86
2023/06/29 15:15:25;;;;;;;3.70;1.30;;;;;;;25.53;41.38;100553.21;105451;1299;73795;-87
2023/06/29 15:18:40;;;;;;;1.60;1.30;;;;;;;25.48;41.56;100549.40;105380;1302;68607;-87
2023/06/29 15:22:26;;;;;;;1.90;1.10;;;;;;;25.44;41.69;100543.39;105443;1299;72656;-87
2023/06/29 15:25:52;;;;;;;3.50;1.40;;;;;;;25.40;41.78;100538.96;105496;1299;58760;-87
2023/06/29 15:29:18;;;;;;;2.30;1.30;;;;;;;25.40;41.78;100540.71;105414;1300;59021;-87
2023/06/29 15:32:06;;;;;;;6.50;1.40;;;;;;;25.43;41.84;100537.15;105415;1299;72789;-87
2023/06/29 15:35:33;;;;;;;2.30;1.30;;;;;;;25.44;42.05;100532.50;105420;1299;67700;-88
2023/06/29 15:39:02;;;;;;;2.90;1.40;;;;;;;25.42;41.90;100532.23;104843;1307;71709;-87
2023/06/29 15:42:08;;;;;;;1.80;1.40;;;;;;;25.43;41.89;100524.05;104652;1308;58302;-87
2023/06/29 15:44:55;;;;;;;;;;;;;;;25.42;41.83;100521.54;104688;1305;60112;-87
2023/06/29 15:47:45;;;;;;;4.00;1.40;;;;;;;25.45;41.98;100521.06;104701;1308;71371;-87
2023/06/29 15:50:32;;;;;;;3.80;1.20;;;;;;;25.55;41.98;100527.50;97257;1307;10002913;-87
2023/06/29 15:53:54;;;;;;;2.70;1.20;;;;;;;25.59;42.01;100527.72;104676;1309;59124;-87
2023/06/29 15:56:41;;;;;;;2.30;1.30;;;;;;;25.59;41.81;100527.21;104839;1306;73845;-87
2023/06/29 15:59:27;;;;;;;;;;;;;;;25.55;41.77;100528.54;104720;1308;67343;-87
2023/06/29 16:02:18;;;;;;;3.20;1.30;;;;;;;25.48;41.77;100526.15;104804;1307;71156;-87
2023/06/29 16:05:44;;;;;;;1.70;1.40;;;;;;;25.40;41.84;100522.04;104618;1308;58257;-87
2023/06/29 16:08:52;;;;;;;3.00;1.10;;;;;;;25.29;41.95;100517.09;104810;1307;58423;-87
2023/06/29 16:12:18;;;;;;;1.60;1.50;;;;;;;25.22;42.04;100514.44;104661;1307;73949;-87
2023/06/29 16:15:46;;;;;;;2.90;1.50;;;;;;;25.17;42.00;100513.45;105111;1299;67598;-87
2023/06/29 16:19:14;;;;;;;3.80;1.30;;;;;;;25.12;42.04;100509.05;105344;1299;71458;-87
2023/06/29 16:22:11;;;;;;;1.40;1.10;;;;;;;25.10;42.23;100508.54;105371;1299;58529;-87
2023/06/29 16:25:56;;;;;;;2.70;1.20;;;;;;;25.06;42.20;100508.61;105353;1300;59072;-87
2023/06/29 16:29:42;;;;;;;2.30;1.30;;;;;;;25.01;42.12;100501.96;105433;1299;73832;-87
2023/06/29 16:32:50;;;;;;;1.60;1.20;;;;;;;24.95;42.19;100505.09;105424;1299;67523;-87
2023/06/29 16:35:45;;;;;;;3.50;1.40;;;;;;;24.90;42.20;100499.14;105367;1299;71660;-87
2023/06/29 16:38:32;;;;;;;1.40;1.30;;;;;;;24.85;42.41;100499.83;105359;1299;58282;-87
2023/06/29 16:41:18;;;;;;;2.30;1.50;;;;;;;24.80;42.49;100495.69;105347;1300;58860;-86
2023/06/29 16:44:05;;;;;;;2.80;1.40;;;;;;;24.74;42.55;100495.76;105331;1299;71637;-86
2023/06/29 16:47:11;;;;;;;;;;;;;;;24.69;42.64;100491.95;105425;1299;68370;-87
2023/06/29 16:49:58;;;;;;;6.30;1.90;;;;;;;24.63;42.74;100493.62;105445;1299;71992;-87
2023/06/29 16:52:53;;;;;;;1.60;1.40;;;;;;;24.60;42.82;100489.80;105343;1299;58315;-87
2023/06/29 16:56:19;;;;;;;4.40;1.50;;;;;;;24.58;42.90;100489.98;105344;1300;60283;-87
2023/06/29 16:59:05;;;;;;;2.20;1.30;;;;;;;24.55;42.88;100486.31;105315;1299;73483;-87
2023/06/29 17:01:52;;;;;;;5.60;1.90;;;;;;;24.54;43.07;100485.02;105264;1299;67492;-87
2023/06/29 17:04:47;;;;;;;1.60;1.50;;;;;;;24.52;43.02;100486.73;105405;1299;71205;-87
2023/06/29 17:07:34;;;;;;;3.20;1.60;;;;;;;24.50;43.15;100484.95;105326;1300;59305;-87
2023/06/29 17:10:40;;;;;;;;;;;;;;;24.48;43.15;100485.98;105279;1303;59353;-88
2023/06/29 17:13:26;;;;;;;4.40;1.30;;;;;;;24.43;43.11;100479.48;105412;1299;73213;-87
2023/06/29 17:16:13;;;;;;;1.20;1.10;;;;;;;24.40;43.09;100481.67;105437;1299;68436;-86
2023/06/29 17:18:59;;;;;;;2.40;1.40;;;;;;;24.35;43.01;100485.21;105352;1299;73258;-86
2023/06/29 17:21:45;;;;;;;9.00;1.50;;;;;;;24.30;43.06;100482.75;105409;1299;58908;-86
2023/06/29 17:24:32;;;;;;;2.10;1.50;;;;;;;24.26;43.11;100481.46;105343;1298;59102;-86
2023/06/29 17:27:18;;;;;;;3.80;1.50;;;;;;;24.22;43.07;100481.80;105376;1300;74429;-85
2023/06/29 17:30:04;;;;;;;2.10;1.60;;;;;;;24.18;43.28;100477.13;105432;1299;67272;-86
2023/06/29 17:32:51;;;;;;;2.20;1.80;;;;;;;24.15;43.26;100471.75;105312;1302;72605;-86
2023/06/29 17:35:37;;;;;;;7.30;1.90;;;;;;;24.11;43.10;100473.77;105336;1300;58883;-86
2023/06/29 17:38:23;;;;;;;4.90;2.20;;;;;;;24.06;43.26;100473.60;105341;1299;60243;-87
2023/06/29 17:41:30;;;;;;;1.90;1.80;;;;;;;24.01;43.23;100469.79;105300;1299;74501;-86
2023/06/29 17:44:17;;;;;;;4.00;1.70;;;;;;;23.95;43.26;100472.89;105481;1299;67451;-87
2023/06/29 17:47:05;;;;;;;2.10;1.60;;;;;;;23.90;43.36;100467.48;105350;1299;72451;-86
2023/06/29 17:49:52;;;;;;;2.70;1.60;;;;;;;23.86;43.36;100465.65;105359;1300;59033;-86
2023/06/29 17:52:38;;;;;;;2.20;1.40;;;;;;;23.80;43.52;100463.25;105451;1299;59048;-86
2023/06/29 17:55:24;;;;;;;2.90;1.30;;;;;;;23.75;43.42;100469.08;105311;1299;75811;-86
2023/06/29 17:58:11;;;;;;;4.60;2.10;;;;;;;23.70;43.56;100468.60;105445;1299;68692;-86
2023/06/29 18:01:17;;;;;;;4.20;1.40;;;;;;;23.64;43.56;100469.16;105375;1299;72614;-86
2023/06/29 18:04:05;;;;;;;2.30;1.70;;;;;;;23.58;43.69;100465.39;105383;1299;59063;-85
2023/06/29 18:06:53;;;;;;;3.10;2.40;;;;;;;23.54;43.63;100467.43;105420;1300;59184;-86
2023/06/29 18:09:41;;;;;;;3.60;2.00;;;;;;;23.49;43.75;100466.02;105379;1299;74825;-86
2023/06/29 18:12:27;;;;;;;3.60;1.60;;;;;;;23.44;44.01;100464.41;105312;1299;69446;-86
2023/06/29 18:15:13;;;;;;;5.70;2.40;;;;;;;23.39;44.00;100461.27;105407;1300;72653;-86
2023/06/29 18:18:08;;;;;;;6.70;2.30;;;;;;;23.33;44.20;100459.82;105338;1299;58892;-86
2023/06/29 18:20:55;;;;;;;3.10;2.70;;;;;;;23.28;44.32;100462.27;105381;1299;60254;-86
2023/06/29 18:23:40;;;;;;;;;;;;;;;23.22;44.34;100465.73;105495;1299;73872;-86
2023/06/29 18:26:36;;;;;;;1.80;1.60;;;;;;;23.14;44.42;100466.80;105361;1299;67538;-86
2023/06/29 18:29:22;;;;;;;2.40;1.50;;;;;;;23.08;44.67;100467.36;105330;1300;71346;-86
2023/06/29 18:32:30;;;;;;;2.00;1.90;;;;;;;23.04;44.78;100465.73;105337;1299;59090;-86
2023/06/29 18:35:33;;;;;;;3.20;1.80;;;;;;;22.96;44.84;100463.48;105360;1299;60907;-86
2023/06/29 18:38:19;;;;;;;2.20;1.60;;;;;;;22.86;45.08;100458.77;105456;1299;74385;-86
2023/06/29 18:41:32;;;;;;;2.60;1.80;;;;;;;22.79;45.11;100460.48;105405;1298;68591;-86
2023/06/29 18:44:18;;;;;;;2.40;2.10;;;;;;;22.69;45.21;100460.27;105388;1299;71159;-86
2023/06/29 18:47:07;;;;;;;2.90;1.80;;;;;;;22.62;45.54;100460.08;105295;1302;58919;-86
2023/06/29 18:49:53;;;;;;;3.90;1.70;;;;;;;22.55;45.60;100461.08;105436;1299;59263;-86
2023/06/29 18:52:40;;;;;;;3.20;2.40;;;;;;;22.48;45.73;100458.73;105388;1299;73365;-85
2023/06/29 18:55:26;;;;;;;3.70;2.50;;;;;;;22.42;45.75;100461.20;105298;1299;67249;-86
2023/06/29 18:58:13;;;;;;;7.50;4.80;;;;;;;22.36;45.89;100455.98;105326;1301;72133;-86
2023/06/29 19:00:59;;;;;;;5.80;3.90;;;;;;;22.26;46.04;100458.17;105345;1299;59353;-86
2023/06/29 19:03:46;;;;;;;9.60;3.80;;;;;;;22.18;46.32;100460.47;105342;1300;59141;-86
2023/06/29 19:06:32;;;;;;;7.10;4.10;;;;;;;22.12;46.48;100458.89;105279;1302;73369;-86
2023/06/29 19:09:18;;;;;;;7.10;4.10;;;;;;;22.07;46.72;100460.80;105340;1299;68349;-86
2023/06/29 19:12:05;;;;;;;8.60;4.30;;;;;;;22.00;46.94;100459.81;105352;1299;71434;-85
2023/06/29 19:14:52;;;;;;;10.90;4.80;;;;;;;21.94;47.04;100462.32;105286;1302;59057;-85
2023/06/29 19:17:38;;;;;;;8.70;4.90;;;;;;;21.85;47.24;100459.63;105409;1299;59039;-86
2023/06/29 19:20:25;;;;;;;6.70;4.20;;;;;;;21.76;47.39;100463.36;105393;1299;74540;-86
2023/06/29 19:23:11;;;;;;;9.60;5.50;;;;;;;21.68;47.50;100464.23;105332;1300;67575;-85
2023/06/29 19:25:57;;;;;;;7.70;3.80;;;;;;;21.59;47.58;100468.33;105288;1299;71495;-85
2023/06/29 19:28:43;;;;;;;5.40;3.90;;;;;;;21.53;47.78;100470.15;105345;1299;59441;-85
2023/06/29 19:31:29;;;;;;;9.30;4.90;;;;;;;21.45;47.95;100474.48;105477;1299;59056;-86
2023/06/29 19:34:16;;;;;;;7.90;4.70;;;;;;;21.35;48.25;100472.46;105437;1299;74436;-85
2023/06/29 19:37:02;;;;;;;6.50;4.30;;;;;;;21.28;48.48;100471.05;105410;1299;67143;-85
2023/06/29 19:39:49;;;;;;;9.40;5.00;;;;;;;21.21;48.42;100470.75;105319;1299;71419;-86
2023/06/29 19:42:35;;;;;;;9.90;5.00;;;;;;;21.13;48.74;100472.46;105383;1300;59189;-86
2023/06/29 19:45:21;;;;;;;6.70;3.90;;;;;;;21.05;48.68;100476.09;105370;1299;59240;-86
2023/06/29 19:48:07;;;;;;;7.20;4.60;;;;;;;20.98;48.83;100481.26;105378;1299;75149;-86
2023/06/29 19:50:53;;;;;;;6.40;4.10;;;;;;;20.90;49.09;100481.61;105377;1299;70194;-86
2023/06/29 19:53:40;;;;;;;11.40;4.20;;;;;;;20.79;49.27;100482.27;105454;1299;73049;-86
2023/06/29 19:56:27;;;;;;;8.10;4.10;;;;;;;20.71;49.26;100486.62;105400;1299;58992;-86
2023/06/29 19:59:13;;;;;;;;;;;;;;;20.63;49.50;100488.68;105406;1300;59014;-86
2023/06/29 20:01:59;;;;;;;;;;;;;;;20.55;49.52;100484.80;105424;1299;73337;-86
2023/06/29 20:04:45;;;;;;;7.00;3.80;;;;;;;20.47;49.56;100487.38;105398;1300;67457;-86
2023/06/29 20:07:32;;;;;;;5.80;4.30;;;;;;;20.39;49.70;100490.62;105401;1299;71554;-86
2023/06/29 20:10:18;;;;;;;6.30;4.20;;;;;;;20.31;49.87;100488.48;105354;1299;58994;-86
2023/06/29 20:13:05;;;;;;;5.90;4.00;;;;;;;20.21;49.92;100490.81;105303;1299;60433;-86
2023/06/29 20:15:59;;;;;;;9.80;4.20;;;;;;;20.14;50.13;100488.09;105327;1300;73211;-86
2023/06/29 20:18:45;;;;;;;5.50;3.80;;;;;;;20.09;50.23;100490.98;105342;1299;67352;-86
2023/06/29 20:21:31;;;;;;;7.90;4.50;;;;;;;20.03;50.32;100493.23;105365;1299;72601;-86
2023/06/29 20:24:18;;;;;;;5.30;3.80;;;;;;;19.97;50.50;100491.30;105379;1299;59076;-86
2023/06/29 20:27:05;;;;;;;7.60;3.90;;;;;;;19.91;50.62;100491.85;105450;1299;59153;-86
2023/06/29 20:29:52;;;;;;;5.40;4.00;;;;;;;19.84;50.80;100491.15;105378;1299;74644;-86
2023/06/29 20:32:38;;;;;;;;;;;;;;;19.78;50.91;100496.21;105490;1299;67420;-86
2023/06/29 20:35:25;;;;;;;5.50;3.70;;;;;;;19.72;51.04;100496.23;105429;1299;71487;-86
2023/06/29 20:38:11;;;;;;;4.70;3.60;;;;;;;19.67;51.18;100495.64;105375;1300;59632;-86
2023/06/29 20:40:57;;;;;;;5.50;3.70;;;;;;;19.59;51.21;100492.45;105397;1298;59960;-86
2023/06/29 20:43:46;;;;;;;6.30;3.70;;;;;;;19.54;51.34;100490.96;105421;1299;73366;-86
2023/06/29 20:46:32;;;;;;;5.30;3.30;;;;;;;19.49;51.36;100490.84;105403;1299;67937;-86
2023/06/29 20:49:18;;;;;;;6.30;4.10;;;;;;;19.45;51.50;100490.91;105449;1302;70359;-85
2023/06/29 20:52:05;;;;;;;6.90;3.60;;;;;;;19.39;51.67;100493.48;105451;1299;58986;-85
2023/06/29 20:54:51;;;;;;;9.10;3.60;;;;;;;19.33;51.76;100493.98;105425;1299;59441;-86
2023/06/29 20:57:37;;;;;;;3.70;3.00;;;;;;;19.26;51.88;100494.01;105463;1299;74325;-86
2023/06/29 21:00:23;;;;;;;5.40;3.30;;;;;;;19.19;52.03;100490.76;105477;1301;68431;-86
2023/06/29 21:03:10;;;;;;;9.60;3.40;;;;;;;19.13;52.07;100489.86;105380;1299;72570;-85
2023/06/29 21:05:56;;;;;;;4.60;3.70;;;;;;;19.08;52.22;100490.61;105447;1300;59010;-86
2023/06/29 21:08:42;;;;;;;5.50;3.40;;;;;;;19.05;52.33;100491.15;105478;1299;59076;-86
2023/06/29 21:11:29;;;;;;;5.00;3.60;;;;;;;19.00;52.38;100493.52;105414;1299;73373;-86
2023/06/29 21:14:16;;;;;;;5.40;4.20;;;;;;;18.94;52.47;100492.80;105338;1299;66177;-86
2023/06/29 21:17:03;;;;;;;4.80;3.50;;;;;;;18.84;52.67;100495.73;105302;1299;71143;-86
2023/06/29 21:19:50;;;;;;;5.60;3.60;;;;;;;18.77;52.60;100490.86;105385;1299;59731;-86
2023/06/29 21:22:36;;;;;;;4.60;2.90;;;;;;;18.69;52.85;100488.71;105449;1300;58995;-86
2023/06/29 21:25:23;;;;;;;6.10;2.40;;;;;;;18.66;53.01;100487.81;105382;1299;72303;-85
2023/06/29 21:28:10;;;;;;;5.50;2.80;;;;;;;18.64;53.00;100488.25;105523;1299;68444;-85
2023/06/29 21:30:57;;;;;;;5.00;2.90;;;;;;;18.61;53.12;100483.88;105392;1300;71461;-85
2023/06/29 21:33:44;;;;;;;3.70;3.20;;;;;;;18.57;53.23;100484.08;105515;1299;59216;-86
2023/06/29 21:36:32;;;;;;;5.20;3.30;;;;;;;18.52;53.40;100483.60;105472;1299;59076;-86
2023/06/29 21:39:18;;;;;;;4.40;3.10;;;;;;;18.43;53.49;100481.94;105413;1299;72215;-86
2023/06/29 21:42:05;;;;;;;3.60;3.30;;;;;;;18.39;53.55;100479.02;105388;1299;68433;-85
2023/06/29 21:44:51;;;;;;;3.50;3.10;;;;;;;18.35;53.66;100482.37;105451;1299;70828;-86
2023/06/29 21:47:37;;;;;;;3.50;3.20;;;;;;;18.34;53.77;100483.98;105477;1299;59067;-86
2023/06/29 21:50:23;;;;;;;;;;;;;;;18.31;53.85;100482.59;105476;1298;61392;-86
2023/06/29 21:53:09;;;;;;;6.00;3.40;;;;;;;18.27;53.93;100487.49;105490;1299;73561;-86
2023/06/29 21:55:56;;;;;;;8.30;3.30;;;;;;;18.22;54.09;100484.25;105430;1299;67910;-85
2023/06/29 21:58:42;;;;;;;8.20;3.80;;;;;;;18.17;54.09;100482.92;105316;1302;72444;-85
2023/06/29 22:01:28;;;;;;;7.40;4.00;;;;;;;18.11;54.27;100483.59;105464;1299;59218;-85
2023/06/29 22:04:14;;;;;;;5.60;3.90;;;;;;;18.07;54.29;100475.23;105380;1298;59245;-85
2023/06/29 22:07:01;;;;;;;8.50;4.10;;;;;;;18.03;54.44;100474.38;105466;1299;74336;-86
2023/06/29 22:09:47;;;;;;;4.60;3.60;;;;;;;18.00;54.57;100476.84;105456;1299;67411;-86
2023/06/29 22:12:42;;;;;;;3.90;3.50;;;;;;;17.93;54.74;100468.42;105443;1298;71517;-86
2023/06/29 22:15:32;;;;;;;4.30;3.50;;;;;;;17.93;54.84;100465.82;105407;1298;58964;-86
2023/06/29 22:18:19;;;;;;;6.00;3.90;;;;;;;17.93;54.96;100466.86;105523;1298;60009;-86